sensor_id;sensor_type;location;lat;lon;timestamp;P1;durP1;ratioP1;P2;durP2;ratioP2
21091;SDS011;10704;42.678;23.288;2023-03-12T00:00:49;5.97;;;2.92;;
21091;SDS011;10704;42.678;23.288;2023-03-12T00:03:15;4.95;;;2.25;;
21091;SDS011;10704;42.678;23.288;2023-03-12T00:05:42;6.10;;;2.70;;
21091;SDS011;10704;42.678;23.288;2023-03-12T00:08:08;5.22;;;2.80;;
21091;SDS011;10704;42.678;23.288;2023-03-12T00:10:36;5.45;;;3.10;;
21091;SDS011;10704;42.678;23.288;2023-03-12T00:13:04;7.05;;;3.67;;
21091;SDS011;10704;42.678;23.288;2023-03-12T00:15:30;9.52;;;3.70;;
21091;SDS011;10704;42.678;23.288;2023-03-12T00:17:56;6.15;;;3.58;;
21091;SDS011;10704;42.678;23.288;2023-03-12T00:20:22;8.73;;;3.58;;
21091;SDS011;10704;42.678;23.288;2023-03-12T00:22:48;10.82;;;4.15;;
21091;SDS011;10704;42.678;23.288;2023-03-12T00:25:18;6.88;;;3.75;;
21091;SDS011;10704;42.678;23.288;2023-03-12T00:27:45;10.05;;;4.30;;
21091;SDS011;10704;42.678;23.288;2023-03-12T00:30:12;6.15;;;4.15;;
21091;SDS011;10704;42.678;23.288;2023-03-12T00:32:38;6.03;;;3.40;;
21091;SDS011;10704;42.678;23.288;2023-03-12T00:35:04;7.30;;;3.85;;
21091;SDS011;10704;42.678;23.288;2023-03-12T00:37:30;9.35;;;3.90;;
21091;SDS011;10704;42.678;23.288;2023-03-12T00:39:58;9.85;;;4.28;;
21091;SDS011;10704;42.678;23.288;2023-03-12T00:42:26;8.27;;;4.38;;
21091;SDS011;10704;42.678;23.288;2023-03-12T00:44:52;6.60;;;4.07;;
21091;SDS011;10704;42.678;23.288;2023-03-12T00:47:18;10.60;;;4.28;;
21091;SDS011;10704;42.678;23.288;2023-03-12T00:49:44;7.45;;;4.05;;
21091;SDS011;10704;42.678;23.288;2023-03-12T00:52:10;5.55;;;3.47;;
21091;SDS011;10704;42.678;23.288;2023-03-12T00:54:37;8.38;;;3.90;;
21091;SDS011;10704;42.678;23.288;2023-03-12T00:57:03;7.10;;;4.80;;
21091;SDS011;10704;42.678;23.288;2023-03-12T00:59:31;5.93;;;4.07;;
21091;SDS011;10704;42.678;23.288;2023-03-12T01:01:57;7.72;;;3.80;;
21091;SDS011;10704;42.678;23.288;2023-03-12T01:04:23;6.55;;;4.20;;
21091;SDS011;10704;42.678;23.288;2023-03-12T01:06:49;7.35;;;3.97;;
21091;SDS011;10704;42.678;23.288;2023-03-12T01:09:15;6.65;;;3.80;;
21091;SDS011;10704;42.678;23.288;2023-03-12T01:11:41;7.43;;;4.45;;
21091;SDS011;10704;42.678;23.288;2023-03-12T01:14:07;8.25;;;4.00;;
21091;SDS011;10704;42.678;23.288;2023-03-12T01:16:33;6.18;;;3.60;;
21091;SDS011;10704;42.678;23.288;2023-03-12T01:19:00;8.48;;;4.03;;
21091;SDS011;10704;42.678;23.288;2023-03-12T01:21:28;5.28;;;3.70;;
21091;SDS011;10704;42.678;23.288;2023-03-12T01:23:55;5.85;;;4.03;;
21091;SDS011;10704;42.678;23.288;2023-03-12T01:26:21;6.43;;;3.85;;
21091;SDS011;10704;42.678;23.288;2023-03-12T01:28:48;6.75;;;4.07;;
21091;SDS011;10704;42.678;23.288;2023-03-12T01:31:15;8.88;;;4.50;;
21091;SDS011;10704;42.678;23.288;2023-03-12T01:33:43;7.03;;;4.18;;
21091;SDS011;10704;42.678;23.288;2023-03-12T01:36:22;7.75;;;4.03;;
21091;SDS011;10704;42.678;23.288;2023-03-12T01:38:51;7.68;;;3.88;;
21091;SDS011;10704;42.678;23.288;2023-03-12T01:41:20;5.68;;;4.00;;
21091;SDS011;10704;42.678;23.288;2023-03-12T01:43:47;7.15;;;3.97;;
21091;SDS011;10704;42.678;23.288;2023-03-12T01:49:04;8.20;;;3.65;;
21091;SDS011;10704;42.678;23.288;2023-03-12T01:51:44;6.07;;;4.07;;
21091;SDS011;10704;42.678;23.288;2023-03-12T01:56:54;7.80;;;4.38;;
21091;SDS011;10704;42.678;23.288;2023-03-12T01:59:23;12.77;;;5.20;;
21091;SDS011;10704;42.678;23.288;2023-03-12T02:02:03;7.68;;;4.18;;
21091;SDS011;10704;42.678;23.288;2023-03-12T02:04:30;8.07;;;4.40;;
21091;SDS011;10704;42.678;23.288;2023-03-12T02:07:04;6.82;;;4.53;;
21091;SDS011;10704;42.678;23.288;2023-03-12T02:09:35;6.70;;;4.40;;
21091;SDS011;10704;42.678;23.288;2023-03-12T02:12:04;6.57;;;4.32;;
21091;SDS011;10704;42.678;23.288;2023-03-12T02:14:31;6.57;;;3.88;;
21091;SDS011;10704;42.678;23.288;2023-03-12T02:16:57;6.18;;;3.70;;
21091;SDS011;10704;42.678;23.288;2023-03-12T02:22:24;8.70;;;4.05;;
21091;SDS011;10704;42.678;23.288;2023-03-12T02:24:57;8.07;;;4.00;;
21091;SDS011;10704;42.678;23.288;2023-03-12T02:27:37;8.07;;;3.97;;
21091;SDS011;10704;42.678;23.288;2023-03-12T02:30:04;5.47;;;3.60;;
21091;SDS011;10704;42.678;23.288;2023-03-12T02:32:35;6.90;;;4.18;;
21091;SDS011;10704;42.678;23.288;2023-03-12T02:35:04;5.60;;;3.75;;
21091;SDS011;10704;42.678;23.288;2023-03-12T02:37:31;7.43;;;4.13;;
21091;SDS011;10704;42.678;23.288;2023-03-12T02:40:04;5.90;;;3.95;;
21091;SDS011;10704;42.678;23.288;2023-03-12T02:42:37;6.32;;;3.80;;
21091;SDS011;10704;42.678;23.288;2023-03-12T02:45:04;10.15;;;3.85;;
21091;SDS011;10704;42.678;23.288;2023-03-12T02:47:30;6.93;;;4.18;;
21091;SDS011;10704;42.678;23.288;2023-03-12T02:49:56;5.82;;;3.65;;
21091;SDS011;10704;42.678;23.288;2023-03-12T02:52:22;7.15;;;4.00;;
21091;SDS011;10704;42.678;23.288;2023-03-12T02:54:48;6.10;;;3.70;;
21091;SDS011;10704;42.678;23.288;2023-03-12T02:57:15;9.15;;;4.10;;
21091;SDS011;10704;42.678;23.288;2023-03-12T02:59:42;5.80;;;3.95;;
21091;SDS011;10704;42.678;23.288;2023-03-12T03:02:07;6.43;;;3.60;;
21091;SDS011;10704;42.678;23.288;2023-03-12T03:04:34;6.78;;;4.22;;
21091;SDS011;10704;42.678;23.288;2023-03-12T03:07:00;6.68;;;3.95;;
21091;SDS011;10704;42.678;23.288;2023-03-12T03:09:26;6.88;;;4.40;;
21091;SDS011;10704;42.678;23.288;2023-03-12T03:11:52;5.13;;;3.28;;
21091;SDS011;10704;42.678;23.288;2023-03-12T03:14:19;5.40;;;3.40;;
21091;SDS011;10704;42.678;23.288;2023-03-12T03:16:48;6.75;;;3.72;;
21091;SDS011;10704;42.678;23.288;2023-03-12T03:19:14;5.57;;;3.22;;
21091;SDS011;10704;42.678;23.288;2023-03-12T03:21:42;5.38;;;3.20;;
21091;SDS011;10704;42.678;23.288;2023-03-12T03:24:08;9.55;;;3.20;;
21091;SDS011;10704;42.678;23.288;2023-03-12T03:26:34;5.90;;;3.17;;
21091;SDS011;10704;42.678;23.288;2023-03-12T03:29:00;7.00;;;3.00;;
21091;SDS011;10704;42.678;23.288;2023-03-12T03:31:26;6.30;;;3.10;;
21091;SDS011;10704;42.678;23.288;2023-03-12T03:33:52;5.53;;;2.80;;
21091;SDS011;10704;42.678;23.288;2023-03-12T03:36:18;5.93;;;2.78;;
21091;SDS011;10704;42.678;23.288;2023-03-12T03:39:00;4.43;;;2.97;;
21091;SDS011;10704;42.678;23.288;2023-03-12T03:41:28;5.95;;;2.80;;
21091;SDS011;10704;42.678;23.288;2023-03-12T03:43:57;6.32;;;2.80;;
21091;SDS011;10704;42.678;23.288;2023-03-12T03:46:24;5.65;;;3.20;;
21091;SDS011;10704;42.678;23.288;2023-03-12T03:48:56;4.93;;;2.95;;
21091;SDS011;10704;42.678;23.288;2023-03-12T03:51:22;5.60;;;3.38;;
21091;SDS011;10704;42.678;23.288;2023-03-12T03:53:52;5.55;;;2.72;;
21091;SDS011;10704;42.678;23.288;2023-03-12T03:56:18;5.40;;;2.65;;
21091;SDS011;10704;42.678;23.288;2023-03-12T03:58:51;3.42;;;2.50;;
21091;SDS011;10704;42.678;23.288;2023-03-12T04:01:19;5.82;;;2.97;;
21091;SDS011;10704;42.678;23.288;2023-03-12T04:03:46;6.40;;;3.20;;
21091;SDS011;10704;42.678;23.288;2023-03-12T04:06:12;7.43;;;2.80;;
21091;SDS011;10704;42.678;23.288;2023-03-12T04:08:38;4.22;;;2.40;;
21091;SDS011;10704;42.678;23.288;2023-03-12T04:11:09;7.13;;;3.20;;
21091;SDS011;10704;42.678;23.288;2023-03-12T04:13:36;4.43;;;2.50;;
21091;SDS011;10704;42.678;23.288;2023-03-12T04:16:03;4.15;;;2.13;;
21091;SDS011;10704;42.678;23.288;2023-03-12T04:18:29;4.68;;;2.25;;
21091;SDS011;10704;42.678;23.288;2023-03-12T04:20:58;4.53;;;2.08;;
21091;SDS011;10704;42.678;23.288;2023-03-12T04:23:23;5.15;;;2.60;;
21091;SDS011;10704;42.678;23.288;2023-03-12T04:25:49;4.30;;;2.20;;
21091;SDS011;10704;42.678;23.288;2023-03-12T04:28:15;6.03;;;2.28;;
21091;SDS011;10704;42.678;23.288;2023-03-12T04:30:42;6.70;;;2.75;;
21091;SDS011;10704;42.678;23.288;2023-03-12T04:33:07;3.72;;;2.05;;
21091;SDS011;10704;42.678;23.288;2023-03-12T04:35:34;3.95;;;1.95;;
21091;SDS011;10704;42.678;23.288;2023-03-12T04:38:00;4.03;;;2.28;;
21091;SDS011;10704;42.678;23.288;2023-03-12T04:40:29;5.55;;;2.35;;
21091;SDS011;10704;42.678;23.288;2023-03-12T04:42:55;3.38;;;1.85;;
21091;SDS011;10704;42.678;23.288;2023-03-12T04:45:21;5.05;;;2.30;;
21091;SDS011;10704;42.678;23.288;2023-03-12T04:47:48;6.38;;;2.35;;
21091;SDS011;10704;42.678;23.288;2023-03-12T04:50:14;5.22;;;2.75;;
21091;SDS011;10704;42.678;23.288;2023-03-12T04:52:40;5.38;;;2.88;;
21091;SDS011;10704;42.678;23.288;2023-03-12T04:55:07;5.35;;;2.53;;
21091;SDS011;10704;42.678;23.288;2023-03-12T04:57:33;5.07;;;2.40;;
21091;SDS011;10704;42.678;23.288;2023-03-12T04:59:59;5.10;;;2.10;;
21091;SDS011;10704;42.678;23.288;2023-03-12T05:02:25;4.13;;;2.25;;
21091;SDS011;10704;42.678;23.288;2023-03-12T05:04:54;5.00;;;2.42;;
21091;SDS011;10704;42.678;23.288;2023-03-12T05:07:21;5.38;;;2.65;;
21091;SDS011;10704;42.678;23.288;2023-03-12T05:09:47;4.85;;;2.42;;
21091;SDS011;10704;42.678;23.288;2023-03-12T05:12:13;5.25;;;2.45;;
21091;SDS011;10704;42.678;23.288;2023-03-12T05:14:39;10.70;;;3.60;;
21091;SDS011;10704;42.678;23.288;2023-03-12T05:17:05;6.90;;;3.30;;
21091;SDS011;10704;42.678;23.288;2023-03-12T05:19:32;7.32;;;2.92;;
21091;SDS011;10704;42.678;23.288;2023-03-12T05:21:58;5.10;;;2.45;;
21091;SDS011;10704;42.678;23.288;2023-03-12T05:24:24;6.28;;;2.92;;
21091;SDS011;10704;42.678;23.288;2023-03-12T05:26:50;5.20;;;2.72;;
21091;SDS011;10704;42.678;23.288;2023-03-12T05:29:20;6.28;;;3.40;;
21091;SDS011;10704;42.678;23.288;2023-03-12T05:31:50;4.65;;;2.35;;
21091;SDS011;10704;42.678;23.288;2023-03-12T05:34:16;6.20;;;2.42;;
21091;SDS011;10704;42.678;23.288;2023-03-12T05:36:44;6.15;;;2.42;;
21091;SDS011;10704;42.678;23.288;2023-03-12T05:39:13;5.75;;;2.92;;
21091;SDS011;10704;42.678;23.288;2023-03-12T05:41:39;4.00;;;2.60;;
21091;SDS011;10704;42.678;23.288;2023-03-12T05:44:10;6.32;;;2.20;;
21091;SDS011;10704;42.678;23.288;2023-03-12T05:46:39;8.77;;;2.95;;
21091;SDS011;10704;42.678;23.288;2023-03-12T05:49:05;5.80;;;3.13;;
21091;SDS011;10704;42.678;23.288;2023-03-12T05:51:32;6.47;;;3.10;;
21091;SDS011;10704;42.678;23.288;2023-03-12T05:53:58;8.25;;;3.10;;
21091;SDS011;10704;42.678;23.288;2023-03-12T05:56:25;5.47;;;2.63;;
21091;SDS011;10704;42.678;23.288;2023-03-12T05:58:51;8.63;;;3.35;;
21091;SDS011;10704;42.678;23.288;2023-03-12T06:01:19;4.82;;;2.60;;
21091;SDS011;10704;42.678;23.288;2023-03-12T06:03:49;5.82;;;2.40;;
21091;SDS011;10704;42.678;23.288;2023-03-12T06:06:15;5.97;;;2.30;;
21091;SDS011;10704;42.678;23.288;2023-03-12T06:08:42;5.22;;;2.20;;
21091;SDS011;10704;42.678;23.288;2023-03-12T06:11:10;5.32;;;2.40;;
21091;SDS011;10704;42.678;23.288;2023-03-12T06:13:37;3.78;;;2.03;;
21091;SDS011;10704;42.678;23.288;2023-03-12T06:16:11;5.25;;;2.25;;
21091;SDS011;10704;42.678;23.288;2023-03-12T06:18:47;4.35;;;2.33;;
21091;SDS011;10704;42.678;23.288;2023-03-12T06:21:17;5.13;;;2.63;;
21091;SDS011;10704;42.678;23.288;2023-03-12T06:23:47;7.53;;;3.00;;
21091;SDS011;10704;42.678;23.288;2023-03-12T06:26:19;5.78;;;3.08;;
21091;SDS011;10704;42.678;23.288;2023-03-12T06:28:46;6.13;;;2.90;;
21091;SDS011;10704;42.678;23.288;2023-03-12T06:31:13;5.93;;;3.25;;
21091;SDS011;10704;42.678;23.288;2023-03-12T06:33:43;5.47;;;2.65;;
21091;SDS011;10704;42.678;23.288;2023-03-12T06:36:10;5.78;;;2.83;;
21091;SDS011;10704;42.678;23.288;2023-03-12T06:38:36;5.53;;;2.85;;
21091;SDS011;10704;42.678;23.288;2023-03-12T06:41:06;6.68;;;2.88;;
21091;SDS011;10704;42.678;23.288;2023-03-12T06:43:35;7.18;;;2.72;;
21091;SDS011;10704;42.678;23.288;2023-03-12T06:46:02;5.40;;;2.97;;
21091;SDS011;10704;42.678;23.288;2023-03-12T06:48:29;4.28;;;2.30;;
21091;SDS011;10704;42.678;23.288;2023-03-12T06:51:01;4.57;;;2.35;;
21091;SDS011;10704;42.678;23.288;2023-03-12T06:53:28;5.97;;;2.20;;
21091;SDS011;10704;42.678;23.288;2023-03-12T06:55:55;5.90;;;2.50;;
21091;SDS011;10704;42.678;23.288;2023-03-12T06:58:24;4.13;;;2.35;;
21091;SDS011;10704;42.678;23.288;2023-03-12T07:00:50;5.43;;;2.40;;
21091;SDS011;10704;42.678;23.288;2023-03-12T07:03:16;5.45;;;2.38;;
21091;SDS011;10704;42.678;23.288;2023-03-12T07:05:43;2.83;;;1.77;;
21091;SDS011;10704;42.678;23.288;2023-03-12T07:08:10;3.60;;;2.05;;
21091;SDS011;10704;42.678;23.288;2023-03-12T07:10:36;4.22;;;2.08;;
21091;SDS011;10704;42.678;23.288;2023-03-12T07:13:05;6.35;;;2.00;;
21091;SDS011;10704;42.678;23.288;2023-03-12T07:15:31;5.20;;;2.10;;
21091;SDS011;10704;42.678;23.288;2023-03-12T07:18:02;5.03;;;2.40;;
21091;SDS011;10704;42.678;23.288;2023-03-12T07:20:35;6.18;;;2.25;;
21091;SDS011;10704;42.678;23.288;2023-03-12T07:23:02;4.35;;;2.47;;
21091;SDS011;10704;42.678;23.288;2023-03-12T07:25:28;5.70;;;2.40;;
21091;SDS011;10704;42.678;23.288;2023-03-12T07:27:54;5.40;;;2.78;;
21091;SDS011;10704;42.678;23.288;2023-03-12T07:30:20;4.50;;;2.20;;
21091;SDS011;10704;42.678;23.288;2023-03-12T07:32:48;5.85;;;2.42;;
21091;SDS011;10704;42.678;23.288;2023-03-12T07:35:14;5.13;;;2.60;;
21091;SDS011;10704;42.678;23.288;2023-03-12T07:37:40;5.30;;;2.75;;
21091;SDS011;10704;42.678;23.288;2023-03-12T07:40:06;5.50;;;2.03;;
21091;SDS011;10704;42.678;23.288;2023-03-12T07:42:33;3.83;;;2.22;;
21091;SDS011;10704;42.678;23.288;2023-03-12T07:44:58;4.40;;;2.00;;
21091;SDS011;10704;42.678;23.288;2023-03-12T07:47:24;6.53;;;2.50;;
21091;SDS011;10704;42.678;23.288;2023-03-12T07:49:50;4.50;;;2.10;;
21091;SDS011;10704;42.678;23.288;2023-03-12T07:52:18;5.05;;;2.42;;
21091;SDS011;10704;42.678;23.288;2023-03-12T07:54:44;6.95;;;2.50;;
21091;SDS011;10704;42.678;23.288;2023-03-12T07:57:10;3.95;;;1.73;;
21091;SDS011;10704;42.678;23.288;2023-03-12T07:59:36;3.65;;;1.70;;
21091;SDS011;10704;42.678;23.288;2023-03-12T08:02:02;3.95;;;1.77;;
21091;SDS011;10704;42.678;23.288;2023-03-12T08:04:28;5.57;;;2.67;;
21091;SDS011;10704;42.678;23.288;2023-03-12T08:06:54;5.43;;;2.47;;
21091;SDS011;10704;42.678;23.288;2023-03-12T08:09:19;7.72;;;3.00;;
21091;SDS011;10704;42.678;23.288;2023-03-12T08:11:45;5.18;;;2.15;;
21091;SDS011;10704;42.678;23.288;2023-03-12T08:14:11;3.80;;;2.10;;
21091;SDS011;10704;42.678;23.288;2023-03-12T08:16:37;3.20;;;1.98;;
21091;SDS011;10704;42.678;23.288;2023-03-12T08:19:03;5.15;;;2.75;;
21091;SDS011;10704;42.678;23.288;2023-03-12T08:21:32;4.68;;;2.83;;
21091;SDS011;10704;42.678;23.288;2023-03-12T08:23:58;6.97;;;3.03;;
21091;SDS011;10704;42.678;23.288;2023-03-12T08:26:24;6.68;;;2.97;;
21091;SDS011;10704;42.678;23.288;2023-03-12T08:28:50;5.15;;;2.50;;
21091;SDS011;10704;42.678;23.288;2023-03-12T08:31:16;11.65;;;5.30;;
21091;SDS011;10704;42.678;23.288;2023-03-12T08:33:42;5.85;;;2.60;;
21091;SDS011;10704;42.678;23.288;2023-03-12T08:36:08;7.68;;;4.10;;
21091;SDS011;10704;42.678;23.288;2023-03-12T08:38:34;6.78;;;3.30;;
21091;SDS011;10704;42.678;23.288;2023-03-12T08:41:00;12.90;;;5.47;;
21091;SDS011;10704;42.678;23.288;2023-03-12T08:43:27;8.07;;;3.90;;
21091;SDS011;10704;42.678;23.288;2023-03-12T08:46:00;3.78;;;2.35;;
21091;SDS011;10704;42.678;23.288;2023-03-12T08:48:28;3.85;;;2.00;;
21091;SDS011;10704;42.678;23.288;2023-03-12T08:50:55;9.25;;;4.18;;
21091;SDS011;10704;42.678;23.288;2023-03-12T08:53:23;6.18;;;2.72;;
21091;SDS011;10704;42.678;23.288;2023-03-12T08:55:54;4.75;;;2.38;;
21091;SDS011;10704;42.678;23.288;2023-03-12T08:58:20;6.25;;;2.80;;
21091;SDS011;10704;42.678;23.288;2023-03-12T09:00:49;4.53;;;2.10;;
21091;SDS011;10704;42.678;23.288;2023-03-12T09:03:16;4.32;;;2.22;;
21091;SDS011;10704;42.678;23.288;2023-03-12T09:05:42;4.07;;;2.25;;
21091;SDS011;10704;42.678;23.288;2023-03-12T09:08:09;4.18;;;2.08;;
21091;SDS011;10704;42.678;23.288;2023-03-12T09:10:35;3.83;;;1.98;;
21091;SDS011;10704;42.678;23.288;2023-03-12T09:13:02;3.47;;;2.03;;
21091;SDS011;10704;42.678;23.288;2023-03-12T09:15:29;4.43;;;2.15;;
21091;SDS011;10704;42.678;23.288;2023-03-12T09:17:55;6.10;;;3.22;;
21091;SDS011;10704;42.678;23.288;2023-03-12T09:20:22;6.72;;;3.33;;
21091;SDS011;10704;42.678;23.288;2023-03-12T09:22:48;5.95;;;2.92;;
21091;SDS011;10704;42.678;23.288;2023-03-12T09:25:15;6.80;;;3.00;;
21091;SDS011;10704;42.678;23.288;2023-03-12T09:27:45;6.38;;;3.60;;
21091;SDS011;10704;42.678;23.288;2023-03-12T09:30:13;5.97;;;2.65;;
21091;SDS011;10704;42.678;23.288;2023-03-12T09:32:41;8.82;;;2.50;;
21091;SDS011;10704;42.678;23.288;2023-03-12T09:35:09;4.38;;;2.33;;
21091;SDS011;10704;42.678;23.288;2023-03-12T09:37:36;7.43;;;3.58;;
21091;SDS011;10704;42.678;23.288;2023-03-12T09:40:02;6.90;;;3.05;;
21091;SDS011;10704;42.678;23.288;2023-03-12T09:42:49;5.18;;;2.40;;
21091;SDS011;10704;42.678;23.288;2023-03-12T09:45:27;5.28;;;2.28;;
21091;SDS011;10704;42.678;23.288;2023-03-12T09:48:02;4.78;;;2.25;;
21091;SDS011;10704;42.678;23.288;2023-03-12T09:50:36;5.32;;;2.50;;
21091;SDS011;10704;42.678;23.288;2023-03-12T09:55:55;3.92;;;2.15;;
21091;SDS011;10704;42.678;23.288;2023-03-12T10:07:07;5.57;;;2.90;;
21091;SDS011;10704;42.678;23.288;2023-03-12T10:21:06;4.43;;;2.38;;
21091;SDS011;10704;42.678;23.288;2023-03-12T10:26:53;5.28;;;2.60;;
21091;SDS011;10704;42.678;23.288;2023-03-12T10:29:23;5.07;;;2.15;;
21091;SDS011;10704;42.678;23.288;2023-03-12T10:31:54;5.63;;;2.35;;
21091;SDS011;10704;42.678;23.288;2023-03-12T10:34:24;5.85;;;2.75;;
21091;SDS011;10704;42.678;23.288;2023-03-12T10:36:53;4.63;;;2.55;;
21091;SDS011;10704;42.678;23.288;2023-03-12T10:39:23;4.93;;;2.60;;
21091;SDS011;10704;42.678;23.288;2023-03-12T10:41:49;3.92;;;2.10;;
21091;SDS011;10704;42.678;23.288;2023-03-12T10:44:19;3.85;;;2.22;;
21091;SDS011;10704;42.678;23.288;2023-03-12T10:47:09;4.03;;;2.17;;
21091;SDS011;10704;42.678;23.288;2023-03-12T10:49:57;2.55;;;1.60;;
21091;SDS011;10704;42.678;23.288;2023-03-12T10:52:43;5.05;;;2.63;;
21091;SDS011;10704;42.678;23.288;2023-03-12T10:55:21;3.38;;;1.85;;
21091;SDS011;10704;42.678;23.288;2023-03-12T10:57:53;3.58;;;1.98;;
21091;SDS011;10704;42.678;23.288;2023-03-12T11:00:23;6.00;;;2.10;;
21091;SDS011;10704;42.678;23.288;2023-03-12T11:02:55;3.97;;;1.73;;
21091;SDS011;10704;42.678;23.288;2023-03-12T11:07:55;3.00;;;1.67;;
21091;SDS011;10704;42.678;23.288;2023-03-12T11:13:25;3.30;;;1.48;;
21091;SDS011;10704;42.678;23.288;2023-03-12T11:18:32;4.13;;;1.67;;
21091;SDS011;10704;42.678;23.288;2023-03-12T11:23:39;4.25;;;1.85;;
21091;SDS011;10704;42.678;23.288;2023-03-12T11:28:49;6.13;;;3.10;;
21091;SDS011;10704;42.678;23.288;2023-03-12T11:31:36;4.28;;;1.80;;
21091;SDS011;10704;42.678;23.288;2023-03-12T11:34:09;3.67;;;1.90;;
21091;SDS011;10704;42.678;23.288;2023-03-12T11:39:59;4.72;;;2.70;;
21091;SDS011;10704;42.678;23.288;2023-03-12T11:42:44;8.55;;;3.13;;
21091;SDS011;10704;42.678;23.288;2023-03-12T11:48:43;5.22;;;2.60;;
21091;SDS011;10704;42.678;23.288;2023-03-12T11:54:37;4.78;;;2.50;;
21091;SDS011;10704;42.678;23.288;2023-03-12T11:57:04;3.90;;;2.20;;
21091;SDS011;10704;42.678;23.288;2023-03-12T12:05:02;4.80;;;1.77;;
21091;SDS011;10704;42.678;23.288;2023-03-12T12:11:18;3.83;;;2.10;;
21091;SDS011;10704;42.678;23.288;2023-03-12T12:14:03;4.00;;;2.15;;
21091;SDS011;10704;42.678;23.288;2023-03-12T12:16:45;4.05;;;2.08;;
21091;SDS011;10704;42.678;23.288;2023-03-12T12:36:15;3.72;;;1.70;;
21091;SDS011;10704;42.678;23.288;2023-03-12T12:38:44;3.03;;;1.73;;
21091;SDS011;10704;42.678;23.288;2023-03-12T12:43:50;4.82;;;1.90;;
21091;SDS011;10704;42.678;23.288;2023-03-12T12:46:22;3.10;;;1.92;;
21091;SDS011;10704;42.678;23.288;2023-03-12T12:51:42;7.57;;;2.78;;
21091;SDS011;10704;42.678;23.288;2023-03-12T13:02:18;7.68;;;2.58;;
21091;SDS011;10704;42.678;23.288;2023-03-12T13:04:46;3.50;;;1.80;;
21091;SDS011;10704;42.678;23.288;2023-03-12T13:09:45;3.92;;;2.50;;
21091;SDS011;10704;42.678;23.288;2023-03-12T13:14:50;10.43;;;4.15;;
21091;SDS011;10704;42.678;23.288;2023-03-12T13:19:50;5.93;;;2.40;;
21091;SDS011;10704;42.678;23.288;2023-03-12T13:27:37;5.00;;;2.22;;
21091;SDS011;10704;42.678;23.288;2023-03-12T13:48:20;4.55;;;2.20;;
21091;SDS011;10704;42.678;23.288;2023-03-12T13:50:49;4.00;;;2.63;;
21091;SDS011;10704;42.678;23.288;2023-03-12T13:53:21;2.95;;;1.63;;
21091;SDS011;10704;42.678;23.288;2023-03-12T13:56:01;5.80;;;2.63;;
21091;SDS011;10704;42.678;23.288;2023-03-12T14:01:23;4.35;;;2.60;;
21091;SDS011;10704;42.678;23.288;2023-03-12T14:03:55;5.75;;;2.10;;
21091;SDS011;10704;42.678;23.288;2023-03-12T14:06:24;6.95;;;3.58;;
21091;SDS011;10704;42.678;23.288;2023-03-12T14:09:15;4.35;;;2.53;;
21091;SDS011;10704;42.678;23.288;2023-03-12T14:17:27;3.70;;;1.45;;
21091;SDS011;10704;42.678;23.288;2023-03-12T14:19:56;6.47;;;2.65;;
21091;SDS011;10704;42.678;23.288;2023-03-12T14:22:33;8.68;;;3.38;;
21091;SDS011;10704;42.678;23.288;2023-03-12T14:25:05;6.70;;;2.97;;
21091;SDS011;10704;42.678;23.288;2023-03-12T14:27:36;6.47;;;2.80;;
21091;SDS011;10704;42.678;23.288;2023-03-12T14:33:03;4.13;;;2.20;;
21091;SDS011;10704;42.678;23.288;2023-03-12T14:35:36;4.80;;;1.98;;
21091;SDS011;10704;42.678;23.288;2023-03-12T14:38:15;5.97;;;2.20;;
21091;SDS011;10704;42.678;23.288;2023-03-12T14:43:50;4.13;;;2.20;;
21091;SDS011;10704;42.678;23.288;2023-03-12T14:46:19;3.88;;;2.17;;
21091;SDS011;10704;42.678;23.288;2023-03-12T14:48:50;7.25;;;2.92;;
21091;SDS011;10704;42.678;23.288;2023-03-12T14:51:22;6.00;;;2.45;;
21091;SDS011;10704;42.678;23.288;2023-03-12T14:53:53;6.20;;;2.53;;
21091;SDS011;10704;42.678;23.288;2023-03-12T14:58:50;6.00;;;2.22;;
21091;SDS011;10704;42.678;23.288;2023-03-12T15:01:17;5.53;;;2.33;;
21091;SDS011;10704;42.678;23.288;2023-03-12T15:04:06;5.50;;;2.38;;
21091;SDS011;10704;42.678;23.288;2023-03-12T15:06:59;6.10;;;2.25;;
21091;SDS011;10704;42.678;23.288;2023-03-12T15:09:29;4.25;;;1.75;;
21091;SDS011;10704;42.678;23.288;2023-03-12T15:12:00;3.38;;;1.90;;
21091;SDS011;10704;42.678;23.288;2023-03-12T15:14:31;7.25;;;3.58;;
21091;SDS011;10704;42.678;23.288;2023-03-12T15:17:24;6.78;;;3.17;;
21091;SDS011;10704;42.678;23.288;2023-03-12T15:22:44;6.40;;;3.20;;
21091;SDS011;10704;42.678;23.288;2023-03-12T15:25:21;6.22;;;3.00;;
21091;SDS011;10704;42.678;23.288;2023-03-12T15:27:47;4.50;;;2.50;;
21091;SDS011;10704;42.678;23.288;2023-03-12T15:30:25;5.35;;;2.50;;
21091;SDS011;10704;42.678;23.288;2023-03-12T15:33:09;4.97;;;2.72;;
21091;SDS011;10704;42.678;23.288;2023-03-12T15:38:51;4.65;;;2.60;;
21091;SDS011;10704;42.678;23.288;2023-03-12T15:41:25;7.10;;;3.20;;
21091;SDS011;10704;42.678;23.288;2023-03-12T15:46:52;7.07;;;3.90;;
21091;SDS011;10704;42.678;23.288;2023-03-12T15:49:27;7.57;;;2.85;;
21091;SDS011;10704;42.678;23.288;2023-03-12T15:54:59;8.15;;;3.08;;
21091;SDS011;10704;42.678;23.288;2023-03-12T15:57:28;7.65;;;3.33;;
21091;SDS011;10704;42.678;23.288;2023-03-12T16:00:13;8.50;;;3.92;;
21091;SDS011;10704;42.678;23.288;2023-03-12T16:05:19;8.85;;;4.03;;
21091;SDS011;10704;42.678;23.288;2023-03-12T16:07:49;8.30;;;4.15;;
21091;SDS011;10704;42.678;23.288;2023-03-12T16:10:16;10.68;;;4.30;;
21091;SDS011;10704;42.678;23.288;2023-03-12T16:12:44;7.38;;;3.33;;
21091;SDS011;10704;42.678;23.288;2023-03-12T16:15:12;7.80;;;3.95;;
21091;SDS011;10704;42.678;23.288;2023-03-12T16:17:39;10.60;;;4.45;;
21091;SDS011;10704;42.678;23.288;2023-03-12T16:20:05;10.48;;;4.47;;
21091;SDS011;10704;42.678;23.288;2023-03-12T16:22:35;11.95;;;5.47;;
21091;SDS011;10704;42.678;23.288;2023-03-12T16:25:00;12.02;;;5.45;;
21091;SDS011;10704;42.678;23.288;2023-03-12T16:27:26;10.82;;;4.53;;
21091;SDS011;10704;42.678;23.288;2023-03-12T16:29:52;9.18;;;4.38;;
21091;SDS011;10704;42.678;23.288;2023-03-12T16:32:18;6.85;;;4.50;;
21091;SDS011;10704;42.678;23.288;2023-03-12T16:34:44;6.25;;;3.35;;
21091;SDS011;10704;42.678;23.288;2023-03-12T16:37:11;5.82;;;3.45;;
21091;SDS011;10704;42.678;23.288;2023-03-12T16:39:37;8.40;;;3.88;;
21091;SDS011;10704;42.678;23.288;2023-03-12T16:42:19;7.85;;;4.10;;
21091;SDS011;10704;42.678;23.288;2023-03-12T16:44:45;7.47;;;4.30;;
21091;SDS011;10704;42.678;23.288;2023-03-12T16:47:11;10.20;;;4.60;;
21091;SDS011;10704;42.678;23.288;2023-03-12T16:49:38;8.77;;;4.53;;
21091;SDS011;10704;42.678;23.288;2023-03-12T16:52:17;9.15;;;4.70;;
21091;SDS011;10704;42.678;23.288;2023-03-12T16:54:48;11.50;;;5.82;;
21091;SDS011;10704;42.678;23.288;2023-03-12T16:57:19;10.25;;;5.47;;
21091;SDS011;10704;42.678;23.288;2023-03-12T16:59:52;9.43;;;4.68;;
21091;SDS011;10704;42.678;23.288;2023-03-12T17:02:18;12.15;;;5.43;;
21091;SDS011;10704;42.678;23.288;2023-03-12T17:04:45;13.93;;;5.05;;
21091;SDS011;10704;42.678;23.288;2023-03-12T17:07:13;8.52;;;4.55;;
21091;SDS011;10704;42.678;23.288;2023-03-12T17:09:39;8.45;;;4.20;;
21091;SDS011;10704;42.678;23.288;2023-03-12T17:12:05;8.50;;;3.83;;
21091;SDS011;10704;42.678;23.288;2023-03-12T17:14:36;9.48;;;4.85;;
21091;SDS011;10704;42.678;23.288;2023-03-12T17:17:02;8.25;;;4.03;;
21091;SDS011;10704;42.678;23.288;2023-03-12T17:19:28;11.32;;;4.95;;
21091;SDS011;10704;42.678;23.288;2023-03-12T17:21:54;9.05;;;4.55;;
21091;SDS011;10704;42.678;23.288;2023-03-12T17:24:20;8.82;;;4.68;;